This is the latest recevied weather packets stored in our database for station/object DB0NU-15. If no packets are shown the sender has not sent any weather packets the latest 10 day(s).
| Time | Temp. | Humidity | Pressure | Rain* | Wind** | Luminosity | Snow |
|---|---|---|---|---|---|---|---|
| 1777987865 | 21.67° C | 51% | 1007.5 hPa | 0 mm | - | - | - |
| 1777987261 | 20.56° C | 53% | 1007.7 hPa | 0 mm | - | - | - |
| 1777986658 | 21.11° C | 51% | 1007.8 hPa | 0 mm | - | - | - |
| 1777986055 | 20.56° C | 52% | 1007.8 hPa | 0 mm | - | - | - |
| 1777984848 | 21.67° C | 49% | 1008.1 hPa | 0 mm | - | - | - |
| 1777984244 | 22.22° C | 48% | 1008 hPa | 0 mm | - | - | - |
| 1777983641 | 21.67° C | 49% | 1008.1 hPa | 0 mm | - | - | - |
| 1777983037 | 21.67° C | 50% | 1008.3 hPa | 0 mm | - | - | - |
| 1777982434 | 21.11° C | 52% | 1008.5 hPa | 0 mm | - | - | - |
| 1777981831 | 21.11° C | 53% | 1008.5 hPa | 0 mm | - | - | - |
| 1777981227 | 22.22° C | 52% | 1008.5 hPa | 0 mm | - | - | - |
| 1777980624 | 22.22° C | 52% | 1008.6 hPa | 0 mm | - | - | - |
| 1777980021 | 21.11° C | 55% | 1008.7 hPa | 0 mm | - | - | - |
| 1777979417 | 20.56° C | 56% | 1008.7 hPa | 0 mm | - | - | - |
| 1777978271 | 21.11° C | 55% | 1008.9 hPa | 0 mm | - | - | - |
| 1777977667 | 20.56° C | 59% | 1009 hPa | 0 mm | - | - | - |
| 1777977064 | 21.11° C | 57% | 1009.1 hPa | 0 mm | - | - | - |
| 1777976460 | 21.11° C | 60% | 1009.3 hPa | 0 mm | - | - | - |
| 1777975857 | 20.56° C | 61% | 1009.3 hPa | 0 mm | - | - | - |
| 1777975253 | 20.56° C | 61% | 1009.4 hPa | 0 mm | - | - | - |
| 1777974650 | 20° C | 66% | 1009.5 hPa | 0 mm | - | - | - |
| 1777974047 | 19.44° C | 69% | 1009.6 hPa | 0 mm | - | - | - |
| 1777973443 | 18.89° C | 72% | 1009.6 hPa | 0 mm | - | - | - |
| 1777972237 | 18.33° C | 75% | 1009.9 hPa | 0 mm | - | - | - |
| 1777971633 | 17.22° C | 77% | 1010 hPa | 0 mm | - | - | - |
* Rain latest hour (hover to see other rain measurements)
** Current wind speed in m/s (hover to see current wind gust speed)